sensor_id;sensor_type;location;lat;lon;timestamp;pressure;altitude;pressure_sealevel;temperature;humidity
54453;BME280;40363;52.270;10.546;2023-02-01T00:00:30;77327.97;;;-147.06;78.63
54453;BME280;40363;52.270;10.546;2023-02-01T00:02:58;77327.97;;;-147.06;78.61
54453;BME280;40363;52.270;10.546;2023-02-01T00:05:25;77325.91;;;-147.06;78.67
54453;BME280;40363;52.270;10.546;2023-02-01T00:07:51;77315.63;;;-147.06;78.27
54453;BME280;40363;52.270;10.546;2023-02-01T00:10:18;77311.53;;;-147.06;78.16
54453;BME280;40363;52.270;10.546;2023-02-01T00:12:45;77309.47;;;-147.06;78.35
54453;BME280;40363;52.270;10.546;2023-02-01T00:15:13;77311.53;;;-147.06;78.40
54453;BME280;40363;52.270;10.546;2023-02-01T00:17:40;77311.53;;;-147.06;78.36
54453;BME280;40363;52.270;10.546;2023-02-01T00:20:08;77313.59;;;-147.06;78.64
54453;BME280;40363;52.270;10.546;2023-02-01T00:22:35;77313.59;;;-147.06;78.45
54453;BME280;40363;52.270;10.546;2023-02-01T00:25:02;77323.88;;;-147.06;78.85
54453;BME280;40363;52.270;10.546;2023-02-01T00:27:28;77319.75;;;-147.06;78.89
54453;BME280;40363;52.270;10.546;2023-02-01T00:29:55;77332.09;;;-147.06;79.13
54453;BME280;40363;52.270;10.546;2023-02-01T00:32:23;77325.91;;;-147.06;79.18
54453;BME280;40363;52.270;10.546;2023-02-01T00:34:50;77313.59;;;-147.06;78.97
54453;BME280;40363;52.270;10.546;2023-02-01T00:37:16;77315.63;;;-147.06;78.90
54453;BME280;40363;52.270;10.546;2023-02-01T00:39:43;77315.63;;;-147.06;79.15
54453;BME280;40363;52.270;10.546;2023-02-01T00:42:10;77313.59;;;-147.06;79.13
54453;BME280;40363;52.270;10.546;2023-02-01T00:44:36;77307.41;;;-147.06;79.19
54453;BME280;40363;52.270;10.546;2023-02-01T00:47:03;77311.53;;;-147.06;79.08
54453;BME280;40363;52.270;10.546;2023-02-01T00:49:31;77307.41;;;-147.06;79.38
54453;BME280;40363;52.270;10.546;2023-02-01T00:51:57;77311.53;;;-147.06;79.46
54453;BME280;40363;52.270;10.546;2023-02-01T00:54:24;77311.53;;;-147.06;79.87
54453;BME280;40363;52.270;10.546;2023-02-01T00:56:51;77315.63;;;-147.06;80.07
54453;BME280;40363;52.270;10.546;2023-02-01T00:59:18;77311.53;;;-147.06;80.17
54453;BME280;40363;52.270;10.546;2023-02-01T01:01:44;77311.53;;;-147.06;80.44
54453;BME280;40363;52.270;10.546;2023-02-01T01:04:11;77315.63;;;-147.06;80.27
54453;BME280;40363;52.270;10.546;2023-02-01T01:06:39;77317.69;;;-147.06;80.58
54453;BME280;40363;52.270;10.546;2023-02-01T01:09:07;77309.47;;;-147.06;80.93
54453;BME280;40363;52.270;10.546;2023-02-01T01:11:35;77317.69;;;-147.06;81.01
54453;BME280;40363;52.270;10.546;2023-02-01T01:14:03;77325.91;;;-147.06;81.18
54453;BME280;40363;52.270;10.546;2023-02-01T01:16:31;77317.69;;;-147.06;81.52
54453;BME280;40363;52.270;10.546;2023-02-01T01:18:59;77317.69;;;-147.06;81.57
54453;BME280;40363;52.270;10.546;2023-02-01T01:21:26;77317.69;;;-147.06;81.86
54453;BME280;40363;52.270;10.546;2023-02-01T01:23:54;77313.59;;;-147.06;81.96
54453;BME280;40363;52.270;10.546;2023-02-01T01:26:22;77307.41;;;-147.06;81.58
54453;BME280;40363;52.270;10.546;2023-02-01T01:28:49;77311.53;;;-147.06;81.64
54453;BME280;40363;52.270;10.546;2023-02-01T01:31:17;77315.63;;;-147.06;82.04
54453;BME280;40363;52.270;10.546;2023-02-01T01:33:47;77315.63;;;-147.06;81.98
54453;BME280;40363;52.270;10.546;2023-02-01T01:36:14;77315.63;;;-147.06;81.63
54453;BME280;40363;52.270;10.546;2023-02-01T01:38:41;77313.59;;;-147.06;81.82
54453;BME280;40363;52.270;10.546;2023-02-01T01:41:14;77311.53;;;-147.06;82.01
54453;BME280;40363;52.270;10.546;2023-02-01T01:43:47;77319.75;;;-147.06;81.99
54453;BME280;40363;52.270;10.546;2023-02-01T01:46:16;77319.75;;;-147.06;81.88
54453;BME280;40363;52.270;10.546;2023-02-01T01:48:42;77313.59;;;-147.06;81.59
54453;BME280;40363;52.270;10.546;2023-02-01T01:51:12;77299.19;;;-147.06;81.29
54453;BME280;40363;52.270;10.546;2023-02-01T01:53:44;77301.25;;;-147.06;81.20
54453;BME280;40363;52.270;10.546;2023-02-01T01:56:13;77313.59;;;-147.06;81.55
54453;BME280;40363;52.270;10.546;2023-02-01T01:58:40;77305.34;;;-147.06;81.25
54453;BME280;40363;52.270;10.546;2023-02-01T02:01:07;77307.41;;;-147.06;81.25
54453;BME280;40363;52.270;10.546;2023-02-01T02:03:37;77299.19;;;-147.06;81.37
54453;BME280;40363;52.270;10.546;2023-02-01T02:06:11;77299.19;;;-147.06;81.45
54453;BME280;40363;52.270;10.546;2023-02-01T02:08:41;77305.34;;;-147.06;81.51
54453;BME280;40363;52.270;10.546;2023-02-01T02:11:10;77311.53;;;-147.06;81.93
54453;BME280;40363;52.270;10.546;2023-02-01T02:13:41;77303.31;;;-147.06;81.74
54453;BME280;40363;52.270;10.546;2023-02-01T02:16:20;77293.03;;;-147.06;81.27
54453;BME280;40363;52.270;10.546;2023-02-01T02:19:00;77295.06;;;-147.06;81.52
54453;BME280;40363;52.270;10.546;2023-02-01T02:21:45;77295.06;;;-147.06;81.81
54453;BME280;40363;52.270;10.546;2023-02-01T02:24:29;77299.19;;;-147.06;81.43
54453;BME280;40363;52.270;10.546;2023-02-01T02:27:21;77282.75;;;-147.06;81.49
54453;BME280;40363;52.270;10.546;2023-02-01T02:36:09;77284.81;;;-147.06;82.06
54453;BME280;40363;52.270;10.546;2023-02-01T02:38:46;77282.75;;;-147.06;82.06
54453;BME280;40363;52.270;10.546;2023-02-01T02:41:18;77286.84;;;-147.06;82.08
54453;BME280;40363;52.270;10.546;2023-02-01T02:44:02;77284.81;;;-147.06;82.03
54453;BME280;40363;52.270;10.546;2023-02-01T02:46:51;77290.97;;;-147.06;82.28
54453;BME280;40363;52.270;10.546;2023-02-01T02:49:42;77282.75;;;-147.06;82.21
54453;BME280;40363;52.270;10.546;2023-02-01T02:52:36;77282.75;;;-147.06;82.33
54453;BME280;40363;52.270;10.546;2023-02-01T02:55:23;77280.69;;;-147.06;81.94
54453;BME280;40363;52.270;10.546;2023-02-01T02:57:51;77280.69;;;-147.06;82.14
54453;BME280;40363;52.270;10.546;2023-02-01T03:00:35;77278.63;;;-147.06;81.99
54453;BME280;40363;52.270;10.546;2023-02-01T03:03:20;77274.53;;;-147.06;81.96
54453;BME280;40363;52.270;10.546;2023-02-01T03:06:12;77253.97;;;-147.06;81.39
54453;BME280;40363;52.270;10.546;2023-02-01T03:08:41;77268.34;;;-147.06;81.90
54453;BME280;40363;52.270;10.546;2023-02-01T03:11:12;77262.19;;;-147.06;81.90
54453;BME280;40363;52.270;10.546;2023-02-01T03:13:44;77260.13;;;-147.06;81.81
54453;BME280;40363;52.270;10.546;2023-02-01T03:16:14;77253.97;;;-147.06;81.26
54453;BME280;40363;52.270;10.546;2023-02-01T03:18:47;77237.53;;;-147.06;81.63
54453;BME280;40363;52.270;10.546;2023-02-01T03:21:18;77231.34;;;-147.06;81.47
54453;BME280;40363;52.270;10.546;2023-02-01T03:23:49;77249.84;;;-147.06;81.75
54453;BME280;40363;52.270;10.546;2023-02-01T03:26:19;77249.84;;;-147.06;81.80
54453;BME280;40363;52.270;10.546;2023-02-01T03:28:53;77241.63;;;-147.06;82.07
54453;BME280;40363;52.270;10.546;2023-02-01T03:31:22;77241.63;;;-147.06;81.94
54453;BME280;40363;52.270;10.546;2023-02-01T03:33:49;77237.53;;;-147.06;81.96
54453;BME280;40363;52.270;10.546;2023-02-01T03:36:20;77221.06;;;-147.06;81.82
54453;BME280;40363;52.270;10.546;2023-02-01T03:38:54;77225.19;;;-147.06;81.70
54453;BME280;40363;52.270;10.546;2023-02-01T03:41:27;77212.84;;;-147.06;81.45
54453;BME280;40363;52.270;10.546;2023-02-01T03:43:56;77219.03;;;-147.06;81.53
54453;BME280;40363;52.270;10.546;2023-02-01T03:46:28;77219.03;;;-147.06;81.41
54453;BME280;40363;52.270;10.546;2023-02-01T03:49:00;77212.84;;;-147.06;81.61
54453;BME280;40363;52.270;10.546;2023-02-01T03:51:29;77212.84;;;-147.06;81.57
54453;BME280;40363;52.270;10.546;2023-02-01T03:53:59;77206.69;;;-147.06;81.22
54453;BME280;40363;52.270;10.546;2023-02-01T03:56:29;77204.63;;;-147.06;81.10
54453;BME280;40363;52.270;10.546;2023-02-01T03:58:57;77202.56;;;-147.06;81.12
54453;BME280;40363;52.270;10.546;2023-02-01T04:01:28;77194.34;;;-147.06;80.96
54453;BME280;40363;52.270;10.546;2023-02-01T04:03:55;77196.41;;;-147.06;81.28
54453;BME280;40363;52.270;10.546;2023-02-01T04:06:22;77206.69;;;-147.06;82.13
54453;BME280;40363;52.270;10.546;2023-02-01T04:08:50;77200.50;;;-147.06;82.24
54453;BME280;40363;52.270;10.546;2023-02-01T04:11:18;77188.19;;;-147.06;82.87
54453;BME280;40363;52.270;10.546;2023-02-01T04:13:44;77184.06;;;-147.06;82.97
54453;BME280;40363;52.270;10.546;2023-02-01T04:16:11;77179.97;;;-147.06;83.53
54453;BME280;40363;52.270;10.546;2023-02-01T04:18:38;77188.19;;;-147.06;84.11
54453;BME280;40363;52.270;10.546;2023-02-01T04:21:05;77179.97;;;-147.06;84.29
54453;BME280;40363;52.270;10.546;2023-02-01T04:23:31;77184.06;;;-147.06;85.11
54453;BME280;40363;52.270;10.546;2023-02-01T04:25:59;77171.72;;;-147.06;84.97
54453;BME280;40363;52.270;10.546;2023-02-01T04:28:28;77175.84;;;-147.06;85.34
54453;BME280;40363;52.270;10.546;2023-02-01T04:30:55;77177.91;;;-147.06;85.40
54453;BME280;40363;52.270;10.546;2023-02-01T04:33:21;77182.00;;;-147.06;85.63
54453;BME280;40363;52.270;10.546;2023-02-01T04:35:48;77175.84;;;-147.06;85.57
54453;BME280;40363;52.270;10.546;2023-02-01T04:38:15;77165.56;;;-147.06;85.51
54453;BME280;40363;52.270;10.546;2023-02-01T04:40:42;77175.84;;;-147.06;86.05
54453;BME280;40363;52.270;10.546;2023-02-01T04:43:08;77167.63;;;-147.06;86.15
54453;BME280;40363;52.270;10.546;2023-02-01T04:45:36;77157.34;;;-147.06;85.87
54453;BME280;40363;52.270;10.546;2023-02-01T04:48:03;77147.06;;;-147.06;85.94
54453;BME280;40363;52.270;10.546;2023-02-01T04:50:30;77159.41;;;-147.06;86.21
54453;BME280;40363;52.270;10.546;2023-02-01T04:52:57;77149.13;;;-147.06;86.17
54453;BME280;40363;52.270;10.546;2023-02-01T04:55:23;77140.91;;;-147.06;85.82
54453;BME280;40363;52.270;10.546;2023-02-01T04:57:50;77155.28;;;-147.06;86.00
54453;BME280;40363;52.270;10.546;2023-02-01T05:00:17;77147.06;;;-147.06;86.23
54453;BME280;40363;52.270;10.546;2023-02-01T05:02:45;77149.13;;;-147.06;86.91
54453;BME280;40363;52.270;10.546;2023-02-01T05:05:12;77145.00;;;-147.06;86.63
54453;BME280;40363;52.270;10.546;2023-02-01T05:07:39;77134.72;;;-147.06;86.15
54453;BME280;40363;52.270;10.546;2023-02-01T05:10:06;77145.00;;;-147.06;86.09
54453;BME280;40363;52.270;10.546;2023-02-01T05:12:33;77134.72;;;-147.06;85.95
54453;BME280;40363;52.270;10.546;2023-02-01T05:15:17;77132.69;;;-147.06;85.65
54453;BME280;40363;52.270;10.546;2023-02-01T05:17:45;77138.84;;;-147.06;85.56
54453;BME280;40363;52.270;10.546;2023-02-01T05:20:12;77130.63;;;-147.06;85.22
54453;BME280;40363;52.270;10.546;2023-02-01T05:22:38;77114.19;;;-147.06;85.01
54453;BME280;40363;52.270;10.546;2023-02-01T05:25:06;77118.28;;;-147.06;85.21
54453;BME280;40363;52.270;10.546;2023-02-01T05:27:32;77108.00;;;-147.06;84.98
54453;BME280;40363;52.270;10.546;2023-02-01T05:29:59;77118.28;;;-147.06;85.67
54453;BME280;40363;52.270;10.546;2023-02-01T05:32:27;77118.28;;;-147.06;86.42
54453;BME280;40363;52.270;10.546;2023-02-01T05:34:55;77124.44;;;-147.06;86.89
54453;BME280;40363;52.270;10.546;2023-02-01T05:37:22;77120.34;;;-147.06;87.64
54453;BME280;40363;52.270;10.546;2023-02-01T05:39:48;77134.72;;;-147.06;89.49
54453;BME280;40363;52.270;10.546;2023-02-01T05:42:15;77145.00;;;-147.06;90.23
54453;BME280;40363;52.270;10.546;2023-02-01T05:44:42;77149.13;;;-147.06;91.30
54453;BME280;40363;52.270;10.546;2023-02-01T05:47:08;77171.72;;;-147.06;92.34
54453;BME280;40363;52.270;10.546;2023-02-01T05:49:35;77167.63;;;-147.06;92.60
54453;BME280;40363;52.270;10.546;2023-02-01T05:52:04;77161.47;;;-147.06;93.63
54453;BME280;40363;52.270;10.546;2023-02-01T05:54:30;77165.56;;;-147.06;94.09
54453;BME280;40363;52.270;10.546;2023-02-01T05:56:57;77171.72;;;-147.06;94.24
54453;BME280;40363;52.270;10.546;2023-02-01T05:59:23;77192.28;;;-147.06;95.08
54453;BME280;40363;52.270;10.546;2023-02-01T06:01:50;77198.47;;;-147.06;96.05
54453;BME280;40363;52.270;10.546;2023-02-01T06:04:17;77198.47;;;-147.06;96.32
54453;BME280;40363;52.270;10.546;2023-02-01T06:06:43;77200.50;;;-147.06;96.80
54453;BME280;40363;52.270;10.546;2023-02-01T06:09:11;77188.19;;;-147.06;97.35
54453;BME280;40363;52.270;10.546;2023-02-01T06:11:39;77188.19;;;-147.06;96.58
54453;BME280;40363;52.270;10.546;2023-02-01T06:14:06;77186.13;;;-147.06;96.90
54453;BME280;40363;52.270;10.546;2023-02-01T06:16:33;77184.06;;;-147.06;96.97
54453;BME280;40363;52.270;10.546;2023-02-01T06:19:00;77179.97;;;-147.06;96.66
54453;BME280;40363;52.270;10.546;2023-02-01T06:21:26;77182.00;;;-147.06;96.66
54453;BME280;40363;52.270;10.546;2023-02-01T06:23:53;77177.91;;;-147.06;96.66
54453;BME280;40363;52.270;10.546;2023-02-01T06:26:24;77161.47;;;-147.06;96.60
54453;BME280;40363;52.270;10.546;2023-02-01T06:28:51;77167.63;;;-147.06;96.59
54453;BME280;40363;52.270;10.546;2023-02-01T06:31:17;77175.84;;;-147.06;96.30
54453;BME280;40363;52.270;10.546;2023-02-01T06:33:44;77165.56;;;-147.06;96.09
54453;BME280;40363;52.270;10.546;2023-02-01T06:36:12;77149.13;;;-147.06;95.84
54453;BME280;40363;52.270;10.546;2023-02-01T06:38:38;77142.97;;;-147.06;94.98
54453;BME280;40363;52.270;10.546;2023-02-01T06:41:05;77138.84;;;-147.06;94.44
54453;BME280;40363;52.270;10.546;2023-02-01T06:43:33;77130.63;;;-147.06;93.46
54453;BME280;40363;52.270;10.546;2023-02-01T06:46:00;77118.28;;;-147.06;93.39
54453;BME280;40363;52.270;10.546;2023-02-01T06:48:27;77126.50;;;-147.06;93.39
54453;BME280;40363;52.270;10.546;2023-02-01T06:50:54;77130.63;;;-147.06;93.22
54453;BME280;40363;52.270;10.546;2023-02-01T06:53:21;77132.69;;;-147.06;93.98
54453;BME280;40363;52.270;10.546;2023-02-01T06:55:52;77126.50;;;-147.06;94.57
54453;BME280;40363;52.270;10.546;2023-02-01T06:58:18;77134.72;;;-147.06;95.14
54453;BME280;40363;52.270;10.546;2023-02-01T07:00:46;77128.56;;;-147.06;95.52
54453;BME280;40363;52.270;10.546;2023-02-01T07:03:13;77134.72;;;-147.06;95.97
54453;BME280;40363;52.270;10.546;2023-02-01T07:05:40;77136.78;;;-147.06;95.97
54453;BME280;40363;52.270;10.546;2023-02-01T07:08:06;77138.84;;;-147.06;95.67
54453;BME280;40363;52.270;10.546;2023-02-01T07:10:33;77136.78;;;-147.06;95.51
54453;BME280;40363;52.270;10.546;2023-02-01T07:13:00;77138.84;;;-147.06;95.36
54453;BME280;40363;52.270;10.546;2023-02-01T07:15:27;77134.72;;;-147.06;95.72
54453;BME280;40363;52.270;10.546;2023-02-01T07:17:55;77136.78;;;-147.06;95.57
54453;BME280;40363;52.270;10.546;2023-02-01T07:20:22;77130.63;;;-147.06;95.87
54453;BME280;40363;52.270;10.546;2023-02-01T07:22:54;77134.72;;;-147.06;95.19
54453;BME280;40363;52.270;10.546;2023-02-01T07:25:21;77138.84;;;-147.06;95.77
54453;BME280;40363;52.270;10.546;2023-02-01T07:27:48;77138.84;;;-147.06;95.90
54453;BME280;40363;52.270;10.546;2023-02-01T07:30:14;77142.97;;;-147.06;95.67
54453;BME280;40363;52.270;10.546;2023-02-01T07:32:41;77151.19;;;-147.06;95.92
54453;BME280;40363;52.270;10.546;2023-02-01T07:35:09;77155.28;;;-147.06;95.57
54453;BME280;40363;52.270;10.546;2023-02-01T07:37:35;77151.19;;;-147.06;95.39
54453;BME280;40363;52.270;10.546;2023-02-01T07:40:03;77161.47;;;-147.06;95.59
54453;BME280;40363;52.270;10.546;2023-02-01T07:42:29;77151.19;;;-147.06;95.57
54453;BME280;40363;52.270;10.546;2023-02-01T07:44:56;77151.19;;;-147.06;95.67
54453;BME280;40363;52.270;10.546;2023-02-01T07:47:23;77155.28;;;-147.06;95.18
54453;BME280;40363;52.270;10.546;2023-02-01T07:49:49;77145.00;;;-147.06;94.82
54453;BME280;40363;52.270;10.546;2023-02-01T07:52:17;77149.13;;;-147.06;94.77
54453;BME280;40363;52.270;10.546;2023-02-01T07:54:44;77155.28;;;-147.06;94.74
54453;BME280;40363;52.270;10.546;2023-02-01T07:57:10;77132.69;;;-147.06;94.19
54453;BME280;40363;52.270;10.546;2023-02-01T07:59:38;77134.72;;;-147.06;94.59
54453;BME280;40363;52.270;10.546;2023-02-01T08:02:25;77130.63;;;-147.06;94.17
54453;BME280;40363;52.270;10.546;2023-02-01T08:04:51;77126.50;;;-147.06;93.65
54453;BME280;40363;52.270;10.546;2023-02-01T08:07:19;77126.50;;;-147.06;94.04
54453;BME280;40363;52.270;10.546;2023-02-01T08:09:45;77134.72;;;-147.06;94.22
54453;BME280;40363;52.270;10.546;2023-02-01T08:12:12;77136.78;;;-147.06;93.91
54453;BME280;40363;52.270;10.546;2023-02-01T08:14:38;77147.06;;;-147.06;93.97
54453;BME280;40363;52.270;10.546;2023-02-01T08:17:06;77140.91;;;-147.06;94.50
54453;BME280;40363;52.270;10.546;2023-02-01T08:19:33;77155.28;;;-147.06;95.24
54453;BME280;40363;52.270;10.546;2023-02-01T08:22:00;77163.50;;;-147.06;95.97
54453;BME280;40363;52.270;10.546;2023-02-01T08:24:32;77167.63;;;-147.06;96.42
54453;BME280;40363;52.270;10.546;2023-02-01T08:27:00;77161.47;;;-147.06;96.17
54453;BME280;40363;52.270;10.546;2023-02-01T08:29:27;77173.78;;;-147.06;96.42
54453;BME280;40363;52.270;10.546;2023-02-01T08:31:54;77173.78;;;-147.06;96.07
54453;BME280;40363;52.270;10.546;2023-02-01T08:34:21;77163.50;;;-147.06;95.96
54453;BME280;40363;52.270;10.546;2023-02-01T08:36:47;77159.41;;;-147.06;95.77
54453;BME280;40363;52.270;10.546;2023-02-01T08:39:14;77155.28;;;-147.06;95.84
54453;BME280;40363;52.270;10.546;2023-02-01T08:41:42;77155.28;;;-147.06;95.98
54453;BME280;40363;52.270;10.546;2023-02-01T08:44:29;77140.91;;;-147.06;95.52
54453;BME280;40363;52.270;10.546;2023-02-01T08:46:55;77128.56;;;-147.06;95.57
54453;BME280;40363;52.270;10.546;2023-02-01T08:49:22;77134.72;;;-147.06;94.63
54453;BME280;40363;52.270;10.546;2023-02-01T08:51:48;77136.78;;;-147.06;94.50
54453;BME280;40363;52.270;10.546;2023-02-01T08:54:15;77153.22;;;-147.06;95.06
54453;BME280;40363;52.270;10.546;2023-02-01T08:56:43;77155.28;;;-147.06;95.18
54453;BME280;40363;52.270;10.546;2023-02-01T08:59:10;77184.06;;;-147.06;95.85
54453;BME280;40363;52.270;10.546;2023-02-01T09:01:36;77194.34;;;-147.06;95.94
54453;BME280;40363;52.270;10.546;2023-02-01T09:04:03;77188.19;;;-147.06;96.39
54453;BME280;40363;52.270;10.546;2023-02-01T09:06:29;77175.84;;;-147.06;95.82
54453;BME280;40363;52.270;10.546;2023-02-01T09:08:56;77165.56;;;-147.06;95.50
54453;BME280;40363;52.270;10.546;2023-02-01T09:11:22;77155.28;;;-147.06;95.09
54453;BME280;40363;52.270;10.546;2023-02-01T09:13:50;77163.50;;;-147.06;95.70
54453;BME280;40363;52.270;10.546;2023-02-01T09:16:17;77151.19;;;-147.06;95.52
54453;BME280;40363;52.270;10.546;2023-02-01T09:18:44;77142.97;;;-147.06;95.27
54453;BME280;40363;52.270;10.546;2023-02-01T09:21:10;77140.91;;;-147.06;95.42
54453;BME280;40363;52.270;10.546;2023-02-01T09:23:37;77140.91;;;-147.06;96.04
54453;BME280;40363;52.270;10.546;2023-02-01T09:26:04;77128.56;;;-147.06;95.88
54453;BME280;40363;52.270;10.546;2023-02-01T09:28:32;77097.72;;;-147.06;94.83
54453;BME280;40363;52.270;10.546;2023-02-01T09:31:01;77085.41;;;-147.06;93.69
54453;BME280;40363;52.270;10.546;2023-02-01T09:33:28;77081.28;;;-147.06;92.63
54453;BME280;40363;52.270;10.546;2023-02-01T09:35:55;77068.94;;;-147.06;91.90
54453;BME280;40363;52.270;10.546;2023-02-01T09:38:22;77054.56;;;-147.06;90.99
54453;BME280;40363;52.270;10.546;2023-02-01T09:40:51;77058.66;;;-147.06;89.46
54453;BME280;40363;52.270;10.546;2023-02-01T09:43:25;77023.72;;;-147.06;87.92
54453;BME280;40363;52.270;10.546;2023-02-01T09:46:03;77015.50;;;-147.06;87.64
54453;BME280;40363;52.270;10.546;2023-02-01T09:48:38;77003.16;;;-147.06;87.31
54453;BME280;40363;52.270;10.546;2023-02-01T09:51:12;77001.13;;;-147.06;86.04
54453;BME280;40363;52.270;10.546;2023-02-01T09:53:43;76990.84;;;-147.06;85.48
54453;BME280;40363;52.270;10.546;2023-02-01T09:56:13;76968.22;;;-147.06;84.18
54453;BME280;40363;52.270;10.546;2023-02-01T09:58:43;76949.72;;;-147.06;83.30
54453;BME280;40363;52.270;10.546;2023-02-01T10:01:16;76914.78;;;-147.06;81.32
54453;BME280;40363;52.270;10.546;2023-02-01T10:03:44;76916.84;;;-147.06;81.52
54453;BME280;40363;52.270;10.546;2023-02-01T10:06:30;76933.28;;;-147.06;81.66
54453;BME280;40363;52.270;10.546;2023-02-01T10:09:17;76916.84;;;-147.06;81.03
54453;BME280;40363;52.270;10.546;2023-02-01T10:11:59;76923.00;;;-147.06;81.28
54453;BME280;40363;52.270;10.546;2023-02-01T10:14:46;76925.06;;;-147.06;80.38
54453;BME280;40363;52.270;10.546;2023-02-01T10:17:26;76937.38;;;-147.06;80.10
54453;BME280;40363;52.270;10.546;2023-02-01T10:20:02;76927.13;;;-147.06;80.22
54453;BME280;40363;52.270;10.546;2023-02-01T10:22:40;76939.44;;;-147.06;79.25
54453;BME280;40363;52.270;10.546;2023-02-01T10:25:13;76929.16;;;-147.06;79.18
54453;BME280;40363;52.270;10.546;2023-02-01T10:27:41;76939.44;;;-147.06;79.47
54453;BME280;40363;52.270;10.546;2023-02-01T10:30:18;76949.72;;;-147.06;80.18
54453;BME280;40363;52.270;10.546;2023-02-01T10:32:48;76941.50;;;-147.06;80.01
54453;BME280;40363;52.270;10.546;2023-02-01T10:35:18;76920.94;;;-147.06;79.88
54453;BME280;40363;52.270;10.546;2023-02-01T10:37:45;76923.00;;;-147.06;79.38
54453;BME280;40363;52.270;10.546;2023-02-01T10:40:17;76916.84;;;-147.06;79.03
54453;BME280;40363;52.270;10.546;2023-02-01T10:42:47;76912.72;;;-147.06;77.94
54453;BME280;40363;52.270;10.546;2023-02-01T10:45:18;76890.13;;;-147.06;78.13
54453;BME280;40363;52.270;10.546;2023-02-01T10:47:48;76869.56;;;-147.06;77.52
54453;BME280;40363;52.270;10.546;2023-02-01T10:50:20;76873.66;;;-147.06;77.31
54453;BME280;40363;52.270;10.546;2023-02-01T10:52:54;76877.78;;;-147.06;76.85
54453;BME280;40363;52.270;10.546;2023-02-01T10:55:34;76875.72;;;-147.06;77.12
54453;BME280;40363;52.270;10.546;2023-02-01T10:58:05;76883.94;;;-147.06;76.78
54453;BME280;40363;52.270;10.546;2023-02-01T11:00:43;76892.16;;;-147.06;76.07
54453;BME280;40363;52.270;10.546;2023-02-01T11:03:37;76892.16;;;-147.06;76.63
54453;BME280;40363;52.270;10.546;2023-02-01T11:06:11;76886.00;;;-147.06;77.29
54453;BME280;40363;52.270;10.546;2023-02-01T11:08:45;76877.78;;;-147.06;77.22
54453;BME280;40363;52.270;10.546;2023-02-01T11:11:12;76888.06;;;-147.06;77.58
54453;BME280;40363;52.270;10.546;2023-02-01T11:13:40;76888.06;;;-147.06;77.50
54453;BME280;40363;52.270;10.546;2023-02-01T11:16:11;76892.16;;;-147.06;77.17
54453;BME280;40363;52.270;10.546;2023-02-01T11:18:40;76908.63;;;-147.06;77.33
54453;BME280;40363;52.270;10.546;2023-02-01T11:21:08;76898.34;;;-147.06;77.68
54453;BME280;40363;52.270;10.546;2023-02-01T11:23:41;76916.84;;;-147.06;77.98
54453;BME280;40363;52.270;10.546;2023-02-01T11:26:21;76918.88;;;-147.06;78.17
54453;BME280;40363;52.270;10.546;2023-02-01T11:28:56;76904.50;;;-147.06;78.27
54453;BME280;40363;52.270;10.546;2023-02-01T11:31:26;76906.56;;;-147.06;77.46
54453;BME280;40363;52.270;10.546;2023-02-01T11:34:04;76894.22;;;-147.06;77.57
54453;BME280;40363;52.270;10.546;2023-02-01T11:36:33;76883.94;;;-147.06;77.93
54453;BME280;40363;52.270;10.546;2023-02-01T11:39:18;76890.13;;;-147.06;77.42
54453;BME280;40363;52.270;10.546;2023-02-01T11:41:56;76886.00;;;-147.06;77.21
54453;BME280;40363;52.270;10.546;2023-02-01T11:44:30;76867.50;;;-147.06;77.46
54453;BME280;40363;52.270;10.546;2023-02-01T11:47:18;76879.84;;;-147.06;77.54
54453;BME280;40363;52.270;10.546;2023-02-01T11:49:46;76883.94;;;-147.06;77.08
54453;BME280;40363;52.270;10.546;2023-02-01T11:52:20;76846.94;;;-147.06;76.93
54453;BME280;40363;52.270;10.546;2023-02-01T11:55:06;76834.63;;;-147.06;75.83
54453;BME280;40363;52.270;10.546;2023-02-01T11:57:49;76822.28;;;-147.06;75.60
54453;BME280;40363;52.270;10.546;2023-02-01T12:00:30;76793.50;;;-147.06;74.94
54453;BME280;40363;52.270;10.546;2023-02-01T12:03:10;76791.44;;;-147.06;74.90
54453;BME280;40363;52.270;10.546;2023-02-01T12:05:50;76783.22;;;-147.06;74.65
54453;BME280;40363;52.270;10.546;2023-02-01T12:08:34;76777.06;;;-147.06;74.19
54453;BME280;40363;52.270;10.546;2023-02-01T12:11:21;76787.34;;;-147.06;74.18
54453;BME280;40363;52.270;10.546;2023-02-01T12:14:06;76791.44;;;-147.06;73.92
54453;BME280;40363;52.270;10.546;2023-02-01T12:16:44;76801.72;;;-147.06;73.61
54453;BME280;40363;52.270;10.546;2023-02-01T12:19:34;76770.88;;;-147.06;73.35
54453;BME280;40363;52.270;10.546;2023-02-01T12:22:26;76768.84;;;-147.06;73.52
54453;BME280;40363;52.270;10.546;2023-02-01T12:25:06;76766.78;;;-147.06;73.37
54453;BME280;40363;52.270;10.546;2023-02-01T12:27:52;76748.28;;;-147.06;73.58
54453;BME280;40363;52.270;10.546;2023-02-01T12:30:36;76752.38;;;-147.06;73.21
54453;BME280;40363;52.270;10.546;2023-02-01T12:33:16;76756.50;;;-147.06;73.53
54453;BME280;40363;52.270;10.546;2023-02-01T12:36:04;76733.88;;;-147.06;73.77
54453;BME280;40363;52.270;10.546;2023-02-01T12:38:46;76748.28;;;-147.06;73.54
54453;BME280;40363;52.270;10.546;2023-02-01T12:41:34;76756.50;;;-147.06;74.05
54453;BME280;40363;52.270;10.546;2023-02-01T12:44:08;76756.50;;;-147.06;73.93
54453;BME280;40363;52.270;10.546;2023-02-01T12:46:41;76756.50;;;-147.06;74.50
54453;BME280;40363;52.270;10.546;2023-02-01T12:49:15;76768.84;;;-147.06;75.37
54453;BME280;40363;52.270;10.546;2023-02-01T12:51:45;76766.78;;;-147.06;76.03
54453;BME280;40363;52.270;10.546;2023-02-01T12:54:20;76772.94;;;-147.06;76.47